Leamington, Canada
Current Conditions -  °F | °C
As of 10:00 PM on Tuesday 21 Oct 2014 (Local Time) from CYQG Reporting Station
Overcast Overcast  
Wind Chill: 38°   Ceiling: 1800
Heat Index: 45°   Visibility: 15mi
Dew Point: 37°   Wind: 15mph
Humidity: 76%   Direction: 350°N
Pressure: 30.18"   Gusts: 29mph
Location:  42.05°N, 82.6°W
Report Text: CYQG 220200Z 35013G25KT 15SM OVC018 07/03 A3018 RMK SC8 SLP223
Loading
Personal Weather Stations






























Interactive Weather Map
Tropical Storm Tracking
New forecast layout! Learn more

10-Day Weather Forecast

Advertisements
Track Severe Weather on mobile